Time;durP1;ratioP1;P1;durP2;ratioP2;P2;SDS_P1;SDS_P2;PMS_P1;PMS_P2;Temp;Humidity;BMP_temperature;BMP_pressure;BME280_temperature;BME280_humidity;BME280_pressure;Samples;Min_cycle;Max_cycle;Signal;HPM_P1;HPM_P2
2022/08/03 00:02:24;;;;;;;3.95;2.00;;;26.20;49.20;;;;;;5073007;28;20028;-50
2022/08/03 00:04:49;;;;;;;3.50;1.98;;;26.10;49.50;;;;;;5074029;28;20028;-62
2022/08/03 00:07:15;;;;;;;2.92;2.00;;;26.10;49.70;;;;;;5056508;28;20050;-53
2022/08/03 00:09:41;;;;;;;3.47;2.15;;;26.00;49.80;;;;;;5077605;28;20390;-52
2022/08/03 00:12:07;;;;;;;2.03;1.83;;;26.00;50.00;;;;;;5076715;28;20052;-51
2022/08/03 00:14:32;;;;;;;2.78;1.88;;;26.00;50.00;;;;;;5078073;28;20466;-54
2022/08/03 00:16:58;;;;;;;2.67;1.67;;;25.90;50.00;;;;;;5076270;28;20033;-55
2022/08/03 00:19:24;;;;;;;2.45;1.80;;;26.00;50.10;;;;;;5078672;28;20020;-54
2022/08/03 00:21:49;;;;;;;2.05;1.85;;;26.00;50.10;;;;;;5070672;28;20043;-64
2022/08/03 00:24:15;;;;;;;2.33;1.85;;;26.00;50.20;;;;;;5060021;28;20033;-50
2022/08/03 00:26:41;;;;;;;2.53;1.95;;;26.00;50.30;;;;;;5057113;28;20032;-52
2022/08/03 00:29:06;;;;;;;4.10;1.73;;;26.00;50.40;;;;;;5073009;28;20073;-54
2022/08/03 00:31:32;;;;;;;2.22;1.77;;;26.00;50.20;;;;;;5074051;28;20028;-52
2022/08/03 00:33:58;;;;;;;3.95;1.98;;;26.00;50.30;;;;;;5074717;28;20079;-53
2022/08/03 00:36:25;;;;;;;2.22;1.88;;;26.00;50.40;;;;;;5076259;28;20024;-52
2022/08/03 00:38:50;;;;;;;2.45;1.80;;;26.00;50.50;;;;;;5072562;28;20029;-64
2022/08/03 00:41:16;;;;;;;2.85;1.80;;;26.00;50.50;;;;;;5079366;28;20373;-53
2022/08/03 00:43:41;;;;;;;2.08;1.70;;;26.00;50.60;;;;;;5074795;28;20039;-54
2022/08/03 00:46:07;;;;;;;2.45;2.03;;;26.00;50.70;;;;;;5076078;28;20032;-51
2022/08/03 00:48:33;;;;;;;3.55;1.90;;;26.00;50.80;;;;;;5077121;28;20035;-52
2022/08/03 00:50:58;;;;;;;2.83;1.90;;;26.00;50.80;;;;;;5077034;28;20032;-54
2022/08/03 00:53:25;;;;;;;2.03;1.70;;;26.00;50.80;;;;;;5077187;28;20032;-49
2022/08/03 00:55:51;;;;;;;2.83;1.75;;;26.00;50.90;;;;;;5084267;28;20465;-63
2022/08/03 00:58:17;;;;;;;1.70;1.60;;;26.00;50.80;;;;;;5073737;28;20031;-49
2022/08/03 01:00:43;;;;;;;2.17;2.00;;;26.00;51.00;;;;;;5073476;28;20461;-49
2022/08/03 01:03:10;;;;;;;3.03;1.65;;;25.90;51.00;;;;;;5073207;28;20040;-49
2022/08/03 01:06:14;;;;;;;7.53;2.08;;;25.90;51.10;;;;;;5077143;28;20020;-47
2022/08/03 01:08:52;;;;;;;1.98;1.67;;;25.90;51.30;;;;;;5073244;28;20105;-52
2022/08/03 01:11:20;;;;;;;2.20;1.77;;;25.80;51.30;;;;;;5080432;28;20052;-51
2022/08/03 01:14:03;;;;;;;3.13;1.77;;;25.90;51.40;;;;;;5077076;28;20117;-56
2022/08/03 01:17:00;;;;;;;3.40;2.00;;;25.90;51.50;;;;;;5066133;28;20017;-53
2022/08/03 01:20:01;;;;;;;7.63;2.10;;;25.90;51.60;;;;;;5054013;28;20115;-53
2022/08/03 01:22:55;;;;;;;2.42;2.10;;;25.90;51.70;;;;;;5079636;28;20091;-53
2022/08/03 01:25:48;;;;;;;2.38;1.90;;;25.80;51.80;;;;;;5073332;28;20024;-52
2022/08/03 01:28:14;;;;;;;2.20;1.80;;;25.80;52.00;;;;;;5070823;28;20469;-49
2022/08/03 01:30:44;;;;;;;2.35;1.95;;;25.80;52.10;;;;;;5074024;28;20035;-53
2022/08/03 01:33:24;;;;;;;1.70;1.50;;;25.80;52.10;;;;;;5078031;28;20576;-52
2022/08/03 01:35:59;;;;;;;2.10;1.70;;;25.80;52.10;;;;;;5076345;28;20028;-63
2022/08/03 01:38:28;;;;;;;2.03;1.83;;;25.80;52.20;;;;;;5077819;28;20032;-52
2022/08/03 01:40:55;;;;;;;2.63;1.70;;;25.80;52.20;;;;;;5077372;28;20484;-56
2022/08/03 01:43:28;;;;;;;2.20;1.67;;;25.80;52.30;;;;;;5072120;28;20119;-50
2022/08/03 01:45:56;;;;;;;2.22;1.73;;;25.80;52.30;;;;;;5072579;28;20074;-51
2022/08/03 01:48:23;;;;;;;3.58;1.90;;;25.80;52.40;;;;;;5073316;28;20032;-53
2022/08/03 01:50:50;;;;;;;2.22;1.50;;;25.80;52.50;;;;;;5073722;28;20469;-63
2022/08/03 01:53:18;;;;;;;4.55;2.10;;;25.70;52.40;;;;;;5054691;28;20027;-51
2022/08/03 01:55:46;;;;;;;2.78;1.90;;;25.70;52.40;;;;;;5073099;28;20052;-55
2022/08/03 01:58:14;;;;;;;3.05;2.20;;;25.70;52.40;;;;;;5074553;28;20085;-55
2022/08/03 02:00:40;;;;;;;1.92;1.73;;;25.70;52.50;;;;;;5071580;28;20503;-50
2022/08/03 02:03:07;;;;;;;2.33;2.00;;;25.70;52.60;;;;;;5072977;28;20029;-58
2022/08/03 02:05:33;;;;;;;2.20;1.60;;;25.70;52.70;;;;;;5073736;28;20028;-49
2022/08/03 02:08:01;;;;;;;3.03;2.15;;;25.70;52.70;;;;;;5073472;28;20036;-52
2022/08/03 02:10:28;;;;;;;2.97;2.00;;;25.60;52.60;;;;;;5070872;28;20048;-55
2022/08/03 02:12:56;;;;;;;3.28;1.88;;;25.70;52.60;;;;;;5076417;28;20385;-54
2022/08/03 02:15:22;;;;;;;2.10;1.85;;;25.60;52.70;;;;;;5081269;28;20043;-51
2022/08/03 02:17:49;;;;;;;3.58;2.03;;;25.70;52.70;;;;;;5069069;28;20029;-54
2022/08/03 02:20:16;;;;;;;1.63;1.50;;;25.60;52.70;;;;;;5071173;28;20034;-51
2022/08/03 02:22:43;;;;;;;2.58;1.85;;;25.60;52.90;;;;;;5067469;28;20032;-52
2022/08/03 02:25:11;;;;;;;2.63;1.83;;;25.60;53.00;;;;;;5073093;28;20158;-52
2022/08/03 02:27:41;;;;;;;2.65;1.70;;;25.60;53.00;;;;;;5073428;28;20352;-52
2022/08/03 02:30:09;;;;;;;3.95;2.30;;;25.60;53.00;;;;;;5072292;28;20024;-54
2022/08/03 02:32:38;;;;;;;3.17;1.67;;;25.60;52.90;;;;;;5073451;28;20036;-51
2022/08/03 02:35:08;;;;;;;3.45;1.70;;;25.60;53.00;;;;;;5074327;28;20056;-52
2022/08/03 02:37:40;;;;;;;1.90;1.70;;;25.60;53.00;;;;;;5075823;28;20077;-50
2022/08/03 02:40:08;;;;;;;2.92;1.85;;;25.60;53.00;;;;;;5076996;28;20063;-53
2022/08/03 02:42:35;;;;;;;1.85;1.60;;;25.50;52.90;;;;;;5074743;28;20145;-54
2022/08/03 02:45:04;;;;;;;2.78;1.80;;;25.50;53.00;;;;;;5071303;28;20036;-52
2022/08/03 02:47:31;;;;;;;2.50;2.05;;;25.50;53.00;;;;;;5078137;28;20031;-54
2022/08/03 02:49:58;;;;;;;2.17;1.92;;;25.50;53.00;;;;;;5072789;28;20028;-51
2022/08/03 02:52:28;;;;;;;2.10;1.52;;;25.50;52.90;;;;;;5072581;28;20075;-54
2022/08/03 02:55:01;;;;;;;2.45;1.90;;;25.50;52.90;;;;;;5073384;28;20033;-56
2022/08/03 02:57:30;;;;;;;1.92;1.73;;;25.50;53.10;;;;;;5072104;28;20031;-62
2022/08/03 02:59:56;;;;;;;2.15;1.50;;;25.40;53.20;;;;;;5078976;28;20052;-54
2022/08/03 03:02:23;;;;;;;3.63;2.38;;;25.50;53.30;;;;;;5070766;28;20400;-50
2022/08/03 03:04:52;;;;;;;2.10;1.88;;;25.50;53.40;;;;;;5078678;28;20056;-63
2022/08/03 03:07:19;;;;;;;3.55;1.75;;;25.50;53.50;;;;;;5071156;28;20028;-54
2022/08/03 03:09:45;;;;;;;2.85;1.48;;;25.40;53.60;;;;;;5071264;28;20035;-53
2022/08/03 03:12:12;;;;;;;3.30;2.60;;;25.40;53.70;;;;;;5073847;28;20114;-52
2022/08/03 03:14:38;;;;;;;3.22;1.65;;;25.40;53.80;;;;;;5077346;28;20371;-56
2022/08/03 03:17:06;;;;;;;2.97;1.90;;;25.40;53.90;;;;;;5074078;28;20162;-55
2022/08/03 03:19:33;;;;;;;2.25;2.00;;;25.30;53.90;;;;;;5076039;28;20103;-54
2022/08/03 03:22:05;;;;;;;2.53;1.92;;;25.30;54.00;;;;;;5073388;28;20036;-53
2022/08/03 03:24:32;;;;;;;2.75;2.30;;;25.40;54.10;;;;;;5070866;28;20029;-53
2022/08/03 03:26:58;;;;;;;3.50;1.90;;;25.40;54.20;;;;;;5069635;28;20029;-54
2022/08/03 03:29:24;;;;;;;3.72;2.28;;;25.30;54.20;;;;;;5070946;28;20377;-52
2022/08/03 03:31:50;;;;;;;2.40;2.20;;;25.30;54.30;;;;;;5071055;28;20025;-64
2022/08/03 03:34:16;;;;;;;2.63;2.13;;;25.30;54.40;;;;;;5070169;28;20025;-52
2022/08/03 03:36:42;;;;;;;3.22;2.33;;;25.30;54.50;;;;;;5075275;28;20101;-55
2022/08/03 03:39:09;;;;;;;2.17;1.70;;;25.30;54.70;;;;;;5061917;28;20438;-55
2022/08/03 03:41:35;;;;;;;4.20;2.50;;;25.30;54.80;;;;;;5080400;28;20111;-56
2022/08/03 03:44:01;;;;;;;4.45;2.33;;;25.20;55.10;;;;;;5073144;28;20116;-53
2022/08/03 03:46:27;;;;;;;4.72;2.05;;;25.10;55.40;;;;;;5080602;28;20035;-54
2022/08/03 03:48:53;;;;;;;2.40;2.03;;;25.10;55.60;;;;;;5074834;28;20099;-64
2022/08/03 03:51:18;;;;;;;4.45;2.15;;;25.20;55.70;;;;;;5058162;28;20123;-55
2022/08/03 03:53:58;;;;;;;5.00;2.30;;;25.10;55.60;;;;;;5074609;28;20025;-53
2022/08/03 03:56:24;;;;;;;2.90;2.13;;;25.20;55.70;;;;;;5076897;28;20032;-54
2022/08/03 03:58:50;;;;;;;2.65;1.90;;;25.10;55.60;;;;;;5082398;28;20029;-64
2022/08/03 04:01:16;;;;;;;2.85;2.13;;;25.20;55.70;;;;;;5077483;28;20028;-55
2022/08/03 04:03:42;;;;;;;2.45;2.10;;;25.20;55.80;;;;;;5083653;28;20100;-54
2022/08/03 04:11:39;;;;;;;3.60;2.70;;;25.20;55.60;;;;;;5078762;28;20205;-54
2022/08/03 04:14:12;;;;;;;2.92;2.28;;;25.20;55.60;;;;;;5078996;28;20453;-54
2022/08/03 04:16:41;;;;;;;3.25;2.70;;;25.20;55.60;;;;;;5077462;28;20393;-53
2022/08/03 04:19:25;;;;;;;3.60;2.50;;;25.20;55.50;;;;;;5073691;28;20140;-54
2022/08/03 04:21:54;;;;;;;4.03;2.13;;;25.20;55.60;;;;;;5084122;28;20036;-64
2022/08/03 04:24:22;;;;;;;2.10;1.90;;;25.20;55.60;;;;;;5072781;28;20028;-55
2022/08/03 04:26:49;;;;;;;7.75;2.30;;;25.10;55.70;;;;;;5074763;28;20029;-54
2022/08/03 04:29:16;;;;;;;2.63;2.10;;;25.10;55.90;;;;;;5075559;28;20032;-51
2022/08/03 04:31:44;;;;;;;3.33;2.33;;;25.00;56.00;;;;;;5075678;28;20051;-52
2022/08/03 04:34:09;;;;;;;2.50;2.20;;;25.00;56.00;;;;;;5075225;28;20112;-52
2022/08/03 04:36:43;;;;;;;4.28;2.40;;;25.10;55.90;;;;;;5078570;28;20492;-53
2022/08/03 04:39:26;;;;;;;2.60;2.20;;;25.10;55.90;;;;;;5079908;28;20033;-54
2022/08/03 04:41:58;;;;;;;2.90;2.50;;;25.10;55.90;;;;;;5077025;28;20064;-63
2022/08/03 04:44:25;;;;;;;2.83;2.20;;;25.10;55.90;;;;;;5079927;28;20055;-52
2022/08/03 04:46:52;;;;;;;3.38;2.60;;;25.20;56.00;;;;;;5059095;28;20048;-62
2022/08/03 04:49:20;;;;;;;3.33;2.65;;;25.20;56.10;;;;;;5082027;28;20035;-51
2022/08/03 04:51:46;;;;;;;3.17;2.45;;;25.10;56.10;;;;;;5073682;28;20036;-55
2022/08/03 04:54:13;;;;;;;7.47;2.83;;;25.20;56.20;;;;;;5079283;28;20650;-52
2022/08/03 04:56:42;;;;;;;4.35;2.50;;;25.20;56.30;;;;;;5074405;28;20031;-53
2022/08/03 04:59:08;;;;;;;3.13;2.75;;;25.10;56.20;;;;;;5078052;28;20469;-51
2022/08/03 05:01:34;;;;;;;3.80;2.50;;;25.10;56.10;;;;;;5075233;28;20028;-51
2022/08/03 05:04:00;;;;;;;3.20;2.40;;;25.10;56.10;;;;;;5075159;28;20035;-57
2022/08/03 05:06:25;;;;;;;4.13;2.65;;;25.20;56.20;;;;;;5078673;28;20025;-54
2022/08/03 05:08:53;;;;;;;2.92;2.08;;;25.20;56.20;;;;;;5074809;28;20031;-64
2022/08/03 05:11:20;;;;;;;4.63;2.72;;;25.20;56.30;;;;;;5081891;28;20052;-51
2022/08/03 05:13:45;;;;;;;3.20;2.70;;;25.20;56.30;;;;;;5077047;28;20032;-55
2022/08/03 05:16:12;;;;;;;3.20;2.53;;;25.20;56.30;;;;;;5074123;28;20842;-54
2022/08/03 05:18:38;;;;;;;3.33;3.03;;;25.20;56.40;;;;;;5073072;28;20060;-58
2022/08/03 05:21:04;;;;;;;4.70;2.58;;;25.20;56.30;;;;;;5075019;28;20067;-54
2022/08/03 05:23:30;;;;;;;4.78;2.33;;;25.20;56.20;;;;;;5081890;28;20389;-56
2022/08/03 05:25:55;;;;;;;4.50;2.50;;;25.20;56.30;;;;;;5073008;28;20029;-55
2022/08/03 05:28:21;;;;;;;3.03;2.22;;;25.20;56.30;;;;;;5080879;28;20031;-54
2022/08/03 05:30:47;;;;;;;2.40;2.20;;;25.20;56.30;;;;;;5080898;28;20351;-51
2022/08/03 05:33:13;;;;;;;2.83;2.50;;;25.20;56.30;;;;;;5079041;28;20056;-56
2022/08/03 05:35:39;;;;;;;2.72;2.20;;;25.20;56.20;;;;;;5077204;28;20024;-53
2022/08/03 05:38:05;;;;;;;3.92;2.53;;;25.30;56.30;;;;;;5076928;28;20036;-57
2022/08/03 05:40:31;;;;;;;3.70;3.03;;;25.20;56.40;;;;;;5077800;28;20040;-56
2022/08/03 05:42:57;;;;;;;3.15;2.80;;;25.20;56.40;;;;;;5074863;28;20377;-54
2022/08/03 05:45:23;;;;;;;4.47;2.88;;;25.30;56.50;;;;;;5073403;28;20040;-50
2022/08/03 05:47:49;;;;;;;3.28;2.55;;;25.30;56.50;;;;;;5079322;28;20024;-65
2022/08/03 05:50:19;;;;;;;3.60;2.78;;;25.30;56.70;;;;;;5071759;28;20033;-55
2022/08/03 05:52:45;;;;;;;4.05;2.10;;;25.30;56.70;;;;;;5072694;28;20438;-52
2022/08/03 05:55:12;;;;;;;4.63;2.60;;;25.30;56.70;;;;;;5077461;28;20071;-53
2022/08/03 05:57:38;;;;;;;2.75;2.40;;;25.30;57.00;;;;;;5076165;28;20028;-55
2022/08/03 06:00:09;;;;;;;4.90;2.35;;;25.30;57.00;;;;;;5077312;28;20032;-56
2022/08/03 06:02:35;;;;;;;3.43;2.87;;;25.30;57.10;;;;;;5078811;28;20035;-55
2022/08/03 06:05:01;;;;;;;3.92;2.80;;;25.30;57.10;;;;;;5071437;28;20036;-52
2022/08/03 06:07:26;;;;;;;3.45;2.25;;;25.30;57.20;;;;;;5074091;28;20016;-54
2022/08/03 06:09:52;;;;;;;5.38;2.88;;;25.30;57.20;;;;;;5071242;28;20099;-65
2022/08/03 06:12:18;;;;;;;3.50;2.30;;;25.40;57.30;;;;;;5078876;28;20049;-52
2022/08/03 06:14:43;;;;;;;3.70;2.22;;;25.30;57.20;;;;;;5077444;28;20376;-51
2022/08/03 06:17:09;;;;;;;5.43;2.40;;;25.40;57.30;;;;;;5070948;28;20481;-55
2022/08/03 06:19:35;;;;;;;4.45;2.55;;;25.40;57.30;;;;;;5074874;28;20028;-54
2022/08/03 06:22:00;;;;;;;2.95;2.33;;;25.40;57.20;;;;;;5074577;28;20470;-55
2022/08/03 06:24:26;;;;;;;4.00;2.35;;;25.40;57.30;;;;;;5078597;28;20096;-52
2022/08/03 06:26:52;;;;;;;3.63;2.60;;;25.30;57.40;;;;;;5071900;28;20031;-61
2022/08/03 06:29:17;;;;;;;4.55;2.95;;;25.40;57.40;;;;;;5079266;28;20434;-53
2022/08/03 06:31:43;;;;;;;3.50;2.60;;;25.40;57.30;;;;;;5074918;28;20497;-54
2022/08/03 06:34:09;;;;;;;4.07;2.40;;;25.50;57.10;;;;;;5073842;28;20060;-53
2022/08/03 06:36:35;;;;;;;4.55;2.45;;;25.50;57.00;;;;;;5074477;28;20029;-53
2022/08/03 06:39:02;;;;;;;4.55;2.33;;;25.60;56.90;;;;;;5079099;28;20024;-51
2022/08/03 06:41:28;;;;;;;5.15;2.80;;;25.60;57.00;;;;;;5060694;28;20036;-55
2022/08/03 06:43:54;;;;;;;2.78;2.40;;;25.60;57.10;;;;;;5069791;28;20029;-55
2022/08/03 06:46:21;;;;;;;4.70;2.42;;;25.60;57.00;;;;;;5077368;28;20025;-52
2022/08/03 06:48:47;;;;;;;5.40;2.35;;;25.70;57.10;;;;;;5080604;28;20090;-53
2022/08/03 06:51:13;;;;;;;6.85;2.55;;;25.70;57.00;;;;;;5069428;28;20040;-54
2022/08/03 06:53:38;;;;;;;6.18;2.83;;;25.80;57.10;;;;;;5076153;28;20050;-53
2022/08/03 06:56:05;;;;;;;3.90;2.30;;;25.80;57.00;;;;;;5061865;28;20064;-53
2022/08/03 06:58:31;;;;;;;3.67;2.28;;;25.70;57.40;;;;;;5070897;28;20032;-55
2022/08/03 07:00:57;;;;;;;3.85;2.40;;;25.70;57.60;;;;;;5070498;28;20032;-53
2022/08/03 07:03:22;;;;;;;14.52;3.75;;;25.70;57.80;;;;;;5075103;28;20457;-51
2022/08/03 07:05:49;;;;;;;2.88;2.10;;;25.70;57.90;;;;;;5073350;28;20025;-51
2022/08/03 07:08:15;;;;;;;9.07;2.95;;;25.80;57.90;;;;;;5072220;28;20067;-53
2022/08/03 07:10:41;;;;;;;5.38;2.38;;;25.70;57.70;;;;;;5077937;28;20107;-56
2022/08/03 07:13:06;;;;;;;4.65;2.53;;;25.80;57.70;;;;;;5084626;28;20023;-56
2022/08/03 07:15:32;;;;;;;4.05;2.40;;;25.80;57.80;;;;;;5071601;28;20028;-53
2022/08/03 07:17:58;;;;;;;3.60;2.17;;;25.80;57.80;;;;;;5070357;28;20017;-53
2022/08/03 07:20:24;;;;;;;4.82;3.13;;;25.80;58.00;;;;;;5073723;28;20036;-51
2022/08/03 07:22:49;;;;;;;3.38;2.67;;;25.80;58.00;;;;;;5069311;28;20028;-62
2022/08/03 07:25:15;;;;;;;3.40;2.55;;;25.80;58.20;;;;;;5069379;28;20036;-53
2022/08/03 07:27:45;;;;;;;4.22;2.50;;;25.80;58.20;;;;;;5066484;28;20028;-52
2022/08/03 07:30:11;;;;;;;3.15;2.65;;;25.80;58.10;;;;;;5069307;28;20042;-60
2022/08/03 07:32:37;;;;;;;4.32;2.58;;;25.90;58.20;;;;;;5069726;28;20024;-54
2022/08/03 07:35:05;;;;;;;4.38;2.28;;;25.90;58.20;;;;;;5081147;28;20031;-53
2022/08/03 07:37:30;;;;;;;3.17;2.20;;;25.90;57.80;;;;;;5076926;28;20044;-53
2022/08/03 07:39:57;;;;;;;5.20;2.42;;;25.90;58.00;;;;;;5071149;28;20029;-54
2022/08/03 07:42:28;;;;;;;3.42;1.90;;;25.90;58.00;;;;;;5069979;28;20024;-53
2022/08/03 07:44:55;;;;;;;3.13;2.47;;;25.90;58.00;;;;;;5066835;28;20128;-63
2022/08/03 07:47:29;;;;;;;2.67;2.20;;;26.00;58.00;;;;;;5069604;28;20059;-55
2022/08/03 07:49:55;;;;;;;3.55;2.35;;;26.00;57.80;;;;;;5067460;28;20554;-56
2022/08/03 07:55:07;;;;;;;3.70;1.80;;;26.00;56.70;;;;;;5071472;28;20091;-53
2022/08/03 07:57:33;;;;;;;2.63;1.73;;;26.10;56.70;;;;;;5066926;28;20457;-53
2022/08/03 07:59:59;;;;;;;3.15;2.20;;;26.10;56.60;;;;;;5069749;28;20039;-49
2022/08/03 08:02:25;;;;;;;4.38;2.25;;;26.10;56.60;;;;;;5069229;28;20024;-54
2022/08/03 08:04:50;;;;;;;2.25;1.63;;;26.10;56.00;;;;;;5068328;28;20480;-64
2022/08/03 08:07:16;;;;;;;2.70;1.83;;;26.10;56.10;;;;;;5069757;28;20025;-54
2022/08/03 08:09:42;;;;;;;2.30;1.90;;;26.20;56.20;;;;;;5069036;28;20024;-55
2022/08/03 08:12:08;;;;;;;2.10;1.60;;;26.20;56.20;;;;;;5067828;28;20044;-55
2022/08/03 08:14:34;;;;;;;3.50;1.80;;;26.20;56.30;;;;;;5066486;28;20123;-60
2022/08/03 08:17:00;;;;;;;2.28;1.80;;;26.20;56.30;;;;;;5070308;28;20020;-55
2022/08/03 08:19:26;;;;;;;1.85;1.50;;;26.20;56.30;;;;;;5069545;28;20025;-54
2022/08/03 08:21:51;;;;;;;2.90;1.98;;;26.30;56.30;;;;;;5069740;28;20484;-63
2022/08/03 08:24:17;;;;;;;2.25;1.80;;;26.30;56.30;;;;;;5055369;28;20056;-55
2022/08/03 08:26:42;;;;;;;2.85;1.98;;;26.30;56.30;;;;;;5074486;28;20032;-55
2022/08/03 08:29:08;;;;;;;3.10;1.95;;;26.30;56.20;;;;;;5074433;28;20837;-55
2022/08/03 08:31:34;;;;;;;2.60;1.80;;;26.30;56.20;;;;;;5073318;28;20035;-56
2022/08/03 08:34:04;;;;;;;2.05;1.67;;;26.30;56.20;;;;;;5071695;28;20036;-52
2022/08/03 08:36:33;;;;;;;3.22;1.80;;;26.30;56.10;;;;;;5073361;28;20024;-56
2022/08/03 08:38:59;;;;;;;2.17;1.73;;;26.30;56.00;;;;;;5071540;28;20424;-54
2022/08/03 08:41:25;;;;;;;1.63;1.40;;;26.30;56.00;;;;;;5072222;28;20037;-57
2022/08/03 08:43:52;;;;;;;1.83;1.63;;;26.40;56.00;;;;;;5072337;28;20036;-63
2022/08/03 08:46:19;;;;;;;2.25;1.52;;;26.40;55.90;;;;;;5071974;28;20047;-54
2022/08/03 08:48:45;;;;;;;1.88;1.67;;;26.40;55.90;;;;;;5070360;28;20037;-55
2022/08/03 08:51:12;;;;;;;2.10;1.90;;;26.40;55.80;;;;;;5070741;28;20626;-56
2022/08/03 08:53:41;;;;;;;2.65;1.70;;;26.30;55.80;;;;;;5072949;28;20029;-58
2022/08/03 08:56:11;;;;;;;2.28;1.70;;;26.40;55.80;;;;;;5069418;28;20070;-54
2022/08/03 08:58:43;;;;;;;2.33;1.45;;;26.40;55.80;;;;;;5072417;28;20025;-55
2022/08/03 09:01:08;;;;;;;1.85;1.48;;;26.40;55.80;;;;;;5071576;28;20036;-59
2022/08/03 09:03:34;;;;;;;2.92;1.50;;;26.40;55.70;;;;;;5072189;28;20037;-60
2022/08/03 09:06:01;;;;;;;1.98;1.50;;;26.40;55.70;;;;;;5070973;28;20111;-55
2022/08/03 09:08:31;;;;;;;2.58;1.38;;;26.40;55.70;;;;;;5071955;28;20036;-54
2022/08/03 09:10:57;;;;;;;2.05;1.60;;;26.40;56.20;;;;;;5071383;28;20448;-54
2022/08/03 09:13:23;;;;;;;3.33;1.42;;;26.50;55.60;;;;;;5072330;28;20098;-54
2022/08/03 09:16:15;;;;;;;2.38;1.50;;;26.40;55.60;;;;;;5071866;28;20029;-55
2022/08/03 09:18:43;;;;;;;1.55;1.25;;;26.40;55.60;;;;;;5071457;28;20031;-55
2022/08/03 09:21:20;;;;;;;3.55;1.40;;;26.50;55.60;;;;;;5072778;28;20123;-55
2022/08/03 09:23:55;;;;;;;2.03;1.60;;;26.40;55.70;;;;;;5069272;28;20047;-54
2022/08/03 09:26:23;;;;;;;1.60;1.40;;;26.40;55.70;;;;;;5071607;28;20052;-58
2022/08/03 09:28:55;;;;;;;2.45;1.30;;;26.40;55.80;;;;;;5054304;28;20020;-53
2022/08/03 09:31:30;;;;;;;1.20;1.10;;;26.40;55.80;;;;;;5072703;28;20586;-55
2022/08/03 09:33:59;;;;;;;3.60;1.45;;;26.40;55.80;;;;;;5069206;28;20090;-54
2022/08/03 09:36:38;;;;;;;3.10;1.30;;;26.40;55.90;;;;;;5072036;28;20038;-54
2022/08/03 09:39:12;;;;;;;1.25;1.02;;;26.50;55.70;;;;;;5070542;28;20071;-55
2022/08/03 09:41:40;;;;;;;1.48;1.10;;;26.50;55.70;;;;;;5073825;28;20040;-57
2022/08/03 09:44:07;;;;;;;1.70;1.60;;;26.50;55.90;;;;;;5074402;28;20093;-52
2022/08/03 09:46:50;;;;;;;2.15;1.38;;;26.50;55.80;;;;;;5075716;28;20029;-55
2022/08/03 09:49:17;;;;;;;3.05;1.38;;;26.50;55.80;;;;;;5077775;28;20107;-58
2022/08/03 09:51:43;;;;;;;1.95;1.27;;;26.50;55.80;;;;;;5078463;28;20028;-54
2022/08/03 09:54:09;;;;;;;2.38;1.63;;;26.50;56.00;;;;;;5071007;28;20032;-60
2022/08/03 09:56:46;;;;;;;3.10;1.60;;;26.50;55.80;;;;;;5074157;28;20056;-54
2022/08/03 09:59:21;;;;;;;2.58;1.50;;;26.50;56.20;;;;;;5076132;28;20085;-56
2022/08/03 10:01:47;;;;;;;1.70;1.60;;;26.50;56.00;;;;;;5076131;28;20035;-54
2022/08/03 10:04:15;;;;;;;1.90;1.67;;;26.50;56.20;;;;;;5077041;28;20033;-55
2022/08/03 10:06:44;;;;;;;2.47;1.13;;;26.50;56.80;;;;;;5076482;28;20485;-54
2022/08/03 10:09:15;;;;;;;1.55;1.30;;;26.50;56.10;;;;;;5072398;28;20064;-58
2022/08/03 10:11:42;;;;;;;4.35;1.40;;;26.50;56.10;;;;;;5067143;28;20150;-55
2022/08/03 10:14:17;;;;;;;1.40;1.20;;;26.50;56.10;;;;;;5073697;28;20462;-58
2022/08/03 10:16:44;;;;;;;2.22;1.30;;;26.50;56.10;;;;;;5070431;28;20028;-54
2022/08/03 10:19:10;;;;;;;1.92;1.38;;;26.50;56.10;;;;;;5074522;28;20036;-58
2022/08/03 10:21:40;;;;;;;1.38;1.25;;;26.50;56.00;;;;;;5073081;28;20036;-54
2022/08/03 10:24:11;;;;;;;2.30;1.25;;;26.50;56.00;;;;;;5074676;28;20025;-58
2022/08/03 10:26:38;;;;;;;2.05;1.40;;;26.50;55.90;;;;;;5075680;28;20032;-54
2022/08/03 10:29:11;;;;;;;1.20;1.10;;;26.40;55.80;;;;;;5076312;28;20042;-57
2022/08/03 10:31:44;;;;;;;1.55;1.30;;;26.40;55.80;;;;;;5073038;28;20043;-54
2022/08/03 10:34:24;;;;;;;1.23;1.02;;;26.50;55.80;;;;;;5070553;28;20029;-56
2022/08/03 10:36:55;;;;;;;2.38;1.38;;;26.50;55.80;;;;;;5073169;28;20227;-64
2022/08/03 10:39:23;;;;;;;2.72;1.60;;;26.40;55.70;;;;;;5071462;28;20032;-55
2022/08/03 10:41:50;;;;;;;1.48;1.38;;;26.40;55.60;;;;;;5075226;28;20094;-56
2022/08/03 10:44:21;;;;;;;1.92;1.30;;;26.50;55.60;;;;;;5073184;28;20029;-54
2022/08/03 10:46:49;;;;;;;1.85;1.33;;;26.50;55.60;;;;;;5070693;28;20377;-54
2022/08/03 10:49:19;;;;;;;1.33;1.23;;;26.50;55.60;;;;;;5075765;28;20163;-54
2022/08/03 10:51:46;;;;;;;1.25;1.15;;;26.50;55.50;;;;;;5071660;28;20033;-53
2022/08/03 10:57:52;;;;;;;1.23;1.10;;;26.50;55.50;;;;;;5006104;28;20068;-55
2022/08/03 11:00:23;;;;;;;1.30;1.20;;;26.50;55.40;;;;;;5008330;28;20026;-55
2022/08/03 11:03:07;;;;;;;1.98;1.30;;;26.50;55.40;;;;;;5008469;28;20042;-55
2022/08/03 11:05:41;;;;;;;1.77;1.00;;;26.50;55.40;;;;;;4998288;28;20038;-60
2022/08/03 11:08:29;;;;;;;1.92;1.45;;;26.50;55.30;;;;;;4988879;28;20138;-59
2022/08/03 11:10:57;;;;;;;1.60;1.10;;;26.50;56.00;;;;;;4998779;28;20042;-56
2022/08/03 11:13:27;;;;;;;1.48;1.20;;;26.50;55.90;;;;;;5010716;28;20503;-58
2022/08/03 11:15:55;;;;;;;1.92;1.20;;;26.50;55.70;;;;;;5010229;28;20144;-63
2022/08/03 11:18:22;;;;;;;1.30;1.20;;;26.60;55.80;;;;;;5003535;28;20104;-55
2022/08/03 11:20:57;;;;;;;2.00;1.30;;;26.60;56.30;;;;;;4996895;28;20411;-53
2022/08/03 11:23:47;;;;;;;1.25;1.00;;;26.60;56.50;;;;;;5005183;28;20608;-55
2022/08/03 11:26:17;;;;;;;1.38;1.15;;;26.60;56.20;;;;;;5002804;28;20087;-60
2022/08/03 11:28:45;;;;;;;1.02;0.93;;;26.60;56.30;;;;;;5053356;28;20123;-57
2022/08/03 11:31:26;;;;;;;1.20;1.00;;;26.60;56.30;;;;;;5070461;28;20044;-55
2022/08/03 11:34:06;;;;;;;1.35;1.10;;;26.60;56.00;;;;;;5069300;28;20040;-61
2022/08/03 11:37:10;;;;;;;1.40;1.17;;;26.60;56.40;;;;;;5068474;28;20123;-58
2022/08/03 11:39:43;;;;;;;3.35;1.33;;;26.60;56.70;;;;;;5054827;28;20037;-55
2022/08/03 11:42:25;;;;;;;1.45;1.00;;;26.60;56.80;;;;;;5049742;28;20524;-54
2022/08/03 11:44:59;;;;;;;1.73;0.90;;;26.60;56.70;;;;;;5070057;28;20725;-63
2022/08/03 11:47:27;;;;;;;1.73;1.30;;;26.60;56.70;;;;;;5070525;28;20040;-53
2022/08/03 11:49:58;;;;;;;2.08;1.13;;;26.60;56.60;;;;;;5069434;28;20027;-64
2022/08/03 11:52:24;;;;;;;2.63;1.20;;;26.60;56.40;;;;;;5070510;28;20090;-55
2022/08/03 11:54:51;;;;;;;3.25;1.30;;;26.60;56.20;;;;;;5071119;28;20025;-63
2022/08/03 11:57:31;;;;;;;2.45;1.10;;;26.60;56.10;;;;;;5073131;28;20527;-55
2022/08/03 11:59:57;;;;;;;3.15;1.20;;;26.70;56.20;;;;;;5055886;28;20033;-55
2022/08/03 12:02:23;;;;;;;3.58;1.17;;;26.60;56.30;;;;;;5057246;28;20123;-61
2022/08/03 12:04:57;;;;;;;2.70;1.20;;;26.70;56.20;;;;;;5075413;28;20066;-55
2022/08/03 12:07:26;;;;;;;1.77;1.13;;;26.70;56.20;;;;;;5076447;28;20039;-58
2022/08/03 12:10:25;;;;;;;1.38;1.10;;;26.70;56.20;;;;;;5072031;28;20527;-64
2022/08/03 12:12:56;;;;;;;1.63;1.02;;;26.70;56.30;;;;;;5029970;28;20044;-63
2022/08/03 12:15:26;;;;;;;1.70;1.20;;;26.70;56.40;;;;;;5074790;28;20510;-56
2022/08/03 12:17:52;;;;;;;3.45;0.95;;;26.70;56.20;;;;;;5072203;28;20040;-63
2022/08/03 12:20:23;;;;;;;1.80;1.33;;;26.70;56.20;;;;;;5074738;28;20377;-55
2022/08/03 12:22:49;;;;;;;2.28;1.30;;;26.70;56.20;;;;;;5072704;28;20031;-54
2022/08/03 12:25:22;;;;;;;1.27;1.15;;;26.70;56.00;;;;;;5072366;28;20024;-55
2022/08/03 12:27:48;;;;;;;1.67;1.20;;;26.70;56.30;;;;;;5071497;28;20477;-59
2022/08/03 12:30:14;;;;;;;1.30;1.10;;;26.70;56.20;;;;;;5072338;28;20034;-56
2022/08/03 12:32:42;;;;;;;1.92;1.23;;;26.70;56.10;;;;;;5073953;28;20473;-58
2022/08/03 12:35:08;;;;;;;2.63;1.55;;;26.70;56.00;;;;;;5055063;28;20066;-56
2022/08/03 12:37:35;;;;;;;1.23;1.13;;;26.70;56.00;;;;;;5074747;28;20028;-54
2022/08/03 12:40:05;;;;;;;1.00;0.90;;;26.70;56.10;;;;;;5074092;28;20100;-53
2022/08/03 12:42:32;;;;;;;1.40;1.20;;;26.70;56.10;;;;;;5076000;28;20066;-55
2022/08/03 12:44:58;;;;;;;2.88;1.35;;;26.70;56.20;;;;;;5077928;28;20024;-59
2022/08/03 12:47:24;;;;;;;2.22;1.33;;;26.70;56.40;;;;;;5075021;28;20027;-57
2022/08/03 12:49:53;;;;;;;1.80;0.80;;;26.70;56.20;;;;;;5071211;28;20432;-53
2022/08/03 12:52:21;;;;;;;1.88;1.63;;;26.70;56.30;;;;;;5073017;28;20112;-55
2022/08/03 12:54:58;;;;;;;1.05;0.80;;;26.70;56.10;;;;;;5073378;28;20035;-55
2022/08/03 12:57:24;;;;;;;2.65;1.30;;;26.70;56.40;;;;;;5070649;28;20021;-55
2022/08/03 12:59:54;;;;;;;1.88;1.33;;;26.70;56.40;;;;;;5074922;28;20035;-63
2022/08/03 13:02:22;;;;;;;2.22;1.20;;;26.80;56.50;;;;;;5073573;28;20448;-58
2022/08/03 13:04:49;;;;;;;2.85;1.45;;;26.80;56.00;;;;;;5073233;28;20029;-56
2022/08/03 13:07:16;;;;;;;2.25;1.20;;;26.80;56.50;;;;;;5071162;28;20074;-52
2022/08/03 13:09:51;;;;;;;2.55;1.00;;;26.80;56.80;;;;;;5073000;28;20040;-54